Time;durP1;ratioP1;P1;durP2;ratioP2;P2;SDS_P1;SDS_P2;PMS_P1;PMS_P2;Temp;Humidity;BMP_temperature;BMP_pressure;BME280_temperature;BME280_humidity;BME280_pressure;Samples;Min_cycle;Max_cycle;Signal;HPM_P1;HPM_P2
2022/05/09 00:00:57;;;;;;;14.40;4.93;;;;;;;8.75;88.37;102969.78;7376931;19;20023;-69
2022/05/09 00:03:42;;;;;;;13.25;4.25;;;;;;;8.71;87.99;102970.44;7376419;19;20374;-70
2022/05/09 00:06:30;;;;;;;16.25;4.30;;;;;;;8.65;88.77;102970.09;7378146;19;20359;-69
2022/05/09 00:09:01;;;;;;;15.90;4.40;;;;;;;8.60;89.35;102970.66;7374171;19;20015;-70
2022/05/09 00:12:08;;;;;;;14.40;4.60;;;;;;;8.60;89.20;102971.56;7375536;19;20036;-70
2022/05/09 00:14:42;;;;;;;17.48;4.68;;;;;;;8.58;89.10;102962.72;7373645;19;20364;-69
2022/05/09 00:17:16;;;;;;;15.70;5.18;;;;;;;8.56;89.27;102963.47;7373317;19;20700;-69
2022/05/09 00:19:47;;;;;;;15.77;5.28;;;;;;;8.53;89.45;102961.56;7375317;19;20007;-69
2022/05/09 00:22:27;;;;;;;12.27;5.00;;;;;;;8.50;89.27;102964.03;7369896;19;20461;-69
2022/05/09 00:25:06;;;;;;;12.98;5.00;;;;;;;8.45;89.47;102952.41;7373408;19;20109;-70
2022/05/09 00:27:45;;;;;;;15.65;4.53;;;;;;;8.44;89.98;102948.91;7370645;19;20010;-69
2022/05/09 00:30:17;;;;;;;11.55;4.28;;;;;;;8.44;90.30;102948.91;7373715;19;20010;-69
2022/05/09 00:32:57;;;;;;;18.23;4.85;;;;;;;8.40;90.03;102960.00;7372097;19;20006;-70
2022/05/09 00:35:30;;;;;;;11.63;3.85;;;;;;;8.37;90.10;102946.75;7372400;19;20010;-69
2022/05/09 00:38:04;;;;;;;15.25;4.75;;;;;;;8.32;90.48;102953.41;7372406;19;20053;-70
2022/05/09 00:40:37;;;;;;;13.70;4.82;;;;;;;8.31;90.27;102954.25;7373985;19;20030;-69
2022/05/09 00:43:32;;;;;;;13.15;4.43;;;;;;;8.30;90.16;102951.56;7372807;19;20014;-70
2022/05/09 00:46:11;;;;;;;14.07;4.60;;;;;;;8.23;90.44;102947.69;7372790;19;20011;-69
2022/05/09 00:48:45;;;;;;;22.83;5.35;;;;;;;8.18;90.75;102949.16;7375767;19;20027;-70
2022/05/09 00:51:21;;;;;;;13.55;4.65;;;;;;;8.19;90.78;102949.25;7374070;19;20018;-71
2022/05/09 00:53:54;;;;;;;19.75;5.03;;;;;;;8.14;90.73;102947.19;7367509;19;20499;-70
2022/05/09 00:56:28;;;;;;;16.23;4.25;;;;;;;8.10;91.07;102950.44;7373790;19;20031;-70
2022/05/09 00:59:13;;;;;;;17.58;5.35;;;;;;;8.08;91.12;102949.44;7371219;19;20003;-70
2022/05/09 01:01:52;;;;;;;14.55;4.55;;;;;;;8.07;90.75;102943.31;7372336;19;20419;-70
2022/05/09 01:04:35;;;;;;;16.50;5.07;;;;;;;8.06;90.87;102945.84;7372879;19;20007;-70
2022/05/09 01:07:13;;;;;;;16.38;5.05;;;;;;;8.01;91.17;102935.13;7369535;19;20052;-70
2022/05/09 01:09:50;;;;;;;13.35;4.97;;;;;;;7.98;91.07;102934.94;7371901;19;20011;-69
2022/05/09 01:12:28;;;;;;;13.75;4.85;;;;;;;7.97;91.22;102927.03;7371569;19;20018;-70
2022/05/09 01:15:01;;;;;;;15.27;5.03;;;;;;;7.92;91.22;102933.69;7372102;19;20862;-70
2022/05/09 01:17:39;;;;;;;20.67;4.88;;;;;;;7.89;91.08;102926.59;7370857;19;20091;-70
2022/05/09 01:20:14;;;;;;;14.57;5.20;;;;;;;7.86;91.98;102931.63;7371312;19;20031;-70
2022/05/09 01:22:51;;;;;;;10.68;5.00;;;;;;;7.84;91.92;102926.31;7373335;19;20467;-69
2022/05/09 01:25:24;;;;;;;16.80;5.43;;;;;;;7.79;91.86;102921.66;7369268;19;20081;-70
2022/05/09 01:27:55;;;;;;;14.82;5.95;;;;;;;7.81;91.66;102922.63;7370415;19;20010;-76
2022/05/09 01:30:33;;;;;;;14.00;5.15;;;;;;;7.76;92.20;102927.59;7373072;19;20011;-77
2022/05/09 01:33:06;;;;;;;23.88;6.03;;;;;;;7.73;91.89;102918.69;7366283;19;20281;-77
2022/05/09 01:35:38;;;;;;;;;;;;;;;7.71;91.89;102917.69;7373089;19;20026;-76
2022/05/09 01:38:17;;;;;;;21.48;5.60;;;;;;;7.67;92.13;102918.31;7373843;19;19914;-76
2022/05/09 01:40:47;;;;;;;11.43;4.43;;;;;;;7.64;92.23;102912.94;7370541;19;20014;-76
2022/05/09 01:43:33;;;;;;;19.77;5.72;;;;;;;7.62;92.94;102918.06;7371847;19;20045;-76
2022/05/09 01:46:03;;;;;;;13.63;4.68;;;;;;;7.58;92.86;102915.19;7368359;19;20074;-75
2022/05/09 01:51:16;;;;;;;12.23;4.18;;;;;;;7.58;93.41;102909.94;7370890;19;20007;-76
2022/05/09 01:53:52;;;;;;;18.30;5.15;;;;;;;7.54;93.52;102912.38;7366529;19;20045;-76
2022/05/09 01:56:24;;;;;;;17.70;5.20;;;;;;;7.58;93.60;102905.63;7371810;19;20011;-76
2022/05/09 01:58:55;;;;;;;17.00;6.18;;;;;;;7.57;93.43;102908.16;7371925;19;20168;-76
2022/05/09 02:01:29;;;;;;;27.45;5.97;;;;;;;7.51;93.54;102906.09;7375366;19;20032;-76
2022/05/09 02:04:00;;;;;;;18.52;5.38;;;;;;;7.57;93.35;102905.53;7369626;19;20030;-76
2022/05/09 02:06:30;;;;;;;16.95;5.72;;;;;;;7.52;93.50;102898.34;7378352;19;20378;-76
2022/05/09 02:09:03;;;;;;;15.38;5.50;;;;;;;7.51;93.26;102901.75;7380147;19;20048;-77
2022/05/09 02:11:33;;;;;;;22.15;6.45;;;;;;;7.40;94.02;102901.94;7381387;19;20053;-77
2022/05/09 02:14:02;;;;;;;19.90;5.32;;;;;;;7.34;94.07;102901.59;7374349;19;20410;-77
2022/05/09 02:16:33;;;;;;;16.75;5.72;;;;;;;7.34;93.90;102898.97;7376786;19;20294;-77
2022/05/09 02:19:04;;;;;;;22.42;5.50;;;;;;;7.28;94.74;102899.50;7377181;19;20089;-76
2022/05/09 02:21:34;;;;;;;19.30;5.85;;;;;;;7.26;94.99;102900.25;7375014;19;20582;-77
2022/05/09 02:24:07;;;;;;;24.52;5.38;;;;;;;7.26;94.76;102895.94;7374514;19;20018;-76
2022/05/09 02:26:37;;;;;;;16.03;6.00;;;;;;;7.25;94.89;102896.75;7378344;19;20006;-76
2022/05/09 02:29:08;;;;;;;17.83;5.57;;;;;;;7.24;95.22;102896.66;7377852;19;20011;-76
2022/05/09 02:31:38;;;;;;;15.18;4.90;;;;;;;7.24;95.05;102892.34;7379181;19;20010;-76
2022/05/09 02:34:08;;;;;;;20.58;6.43;;;;;;;7.21;95.52;102897.38;7374089;19;20011;-77
2022/05/09 02:36:38;;;;;;;20.02;6.50;;;;;;;7.16;95.61;102893.59;7378287;19;20689;-77
2022/05/09 02:39:11;;;;;;;17.15;6.00;;;;;;;7.16;95.46;102904.03;7375938;19;20015;-77
2022/05/09 02:41:41;;;;;;;21.67;7.32;;;;;;;7.12;95.81;102897.72;7373705;19;20011;-77
2022/05/09 02:44:12;;;;;;;17.75;6.22;;;;;;;7.10;95.69;102899.34;7375384;19;20097;-77
2022/05/09 02:46:44;;;;;;;21.63;6.88;;;;;;;7.07;95.14;102895.66;7375877;19;20014;-77
2022/05/09 02:49:14;;;;;;;16.48;5.93;;;;;;;7.05;95.11;102903.38;7373066;19;20628;-76
2022/05/09 02:51:46;;;;;;;18.35;6.57;;;;;;;7.02;95.76;102899.69;7380052;19;20011;-77
2022/05/09 02:54:18;;;;;;;18.85;6.80;;;;;;;6.96;95.97;102889.78;7370811;19;20039;-77
2022/05/09 02:56:48;;;;;;;17.35;6.57;;;;;;;6.94;96.11;102880.97;7377652;19;20294;-77
2022/05/09 02:59:20;;;;;;;24.33;7.40;;;;;;;6.92;96.27;102879.97;7376778;19;20010;-75
2022/05/09 03:01:50;;;;;;;19.10;7.70;;;;;;;6.89;96.67;102885.91;7376839;19;20331;-76
2022/05/09 03:07:03;;;;;;;23.83;6.47;;;;;;;6.87;96.36;102881.41;7377592;19;20010;-76
2022/05/09 03:09:37;;;;;;;19.33;6.70;;;;;;;6.85;96.69;102881.31;7378231;19;20010;-76
2022/05/09 03:12:08;;;;;;;16.42;5.25;;;;;;;6.86;97.14;102879.59;7374298;19;20365;-76
2022/05/09 03:14:39;;;;;;;16.90;5.43;;;;;;;6.85;96.92;102885.63;7379000;19;20045;-76
2022/05/09 03:17:11;;;;;;;17.08;6.45;;;;;;;6.81;97.08;102884.53;7375279;19;20017;-76
2022/05/09 03:19:40;;;;;;;19.52;5.50;;;;;;;6.79;97.21;102883.53;7376715;19;20090;-76
2022/05/09 03:22:11;;;;;;;16.33;5.85;;;;;;;6.74;96.93;102874.53;7372969;19;20058;-78
2022/05/09 03:24:43;;;;;;;18.17;5.85;;;;;;;6.74;97.59;102871.94;7377512;19;20006;-76
2022/05/09 03:27:14;;;;;;;18.23;5.78;;;;;;;6.73;97.69;102869.22;7374318;19;20014;-78
2022/05/09 03:29:44;;;;;;;19.92;6.43;;;;;;;6.71;97.89;102870.84;7377792;19;20522;-78
2022/05/09 03:32:14;;;;;;;17.70;5.57;;;;;;;6.67;97.75;102861.03;7375694;19;20014;-70
2022/05/09 03:34:46;;;;;;;15.57;5.97;;;;;;;6.65;98.57;102868.75;7372453;19;20021;-69
2022/05/09 03:37:16;;;;;;;21.65;6.68;;;;;;;6.60;98.54;102862.38;7376372;19;20472;-69
2022/05/09 03:39:48;;;;;;;20.75;6.13;;;;;;;6.60;98.17;102866.69;7374403;19;20019;-69
2022/05/09 03:42:19;;;;;;;17.55;6.65;;;;;;;6.60;98.02;102861.47;7374133;19;20021;-68
2022/05/09 03:44:51;;;;;;;16.80;5.88;;;;;;;6.55;98.38;102866.41;7375977;19;20467;-68
2022/05/09 03:47:21;;;;;;;17.90;5.78;;;;;;;6.57;98.14;102859.56;7375195;19;20528;-69
2022/05/09 03:49:57;;;;;;;18.98;6.43;;;;;;;6.52;98.66;102850.56;7375986;19;20011;-70
2022/05/09 03:52:28;;;;;;;18.08;6.75;;;;;;;6.49;98.87;102858.19;7370699;19;20134;-69
2022/05/09 03:55:02;;;;;;;27.90;8.20;;;;;;;6.48;98.69;102862.50;7372597;19;20051;-69
2022/05/09 03:57:32;;;;;;;25.13;7.07;;;;;;;6.47;99.13;102857.19;7375998;19;20023;-69
2022/05/09 04:00:07;;;;;;;19.98;7.53;;;;;;;6.45;98.85;102849.28;7377178;19;20014;-69
2022/05/09 04:02:37;;;;;;;17.65;6.72;;;;;;;6.44;99.20;102843.97;7374109;19;20438;-69
2022/05/09 04:05:10;;;;;;;20.67;7.22;;;;;;;6.42;99.09;102841.28;7374212;19;20130;-74
2022/05/09 04:07:39;;;;;;;24.42;8.05;;;;;;;6.41;99.60;102854.22;7373806;19;20015;-68
2022/05/09 04:10:14;;;;;;;28.65;7.82;;;;;;;6.40;99.76;102852.41;7374374;19;20047;-69
2022/05/09 04:12:44;;;;;;;20.90;7.43;;;;;;;6.41;100.00;102849.91;7373956;19;20014;-68
2022/05/09 04:17:57;;;;;;;27.13;8.80;;;;;;;6.40;100.00;102847.19;7371424;19;20684;-70
2022/05/09 04:20:29;;;;;;;21.33;7.28;;;;;;;6.40;100.00;102847.19;7369629;19;20063;-75
2022/05/09 04:23:04;;;;;;;19.83;8.25;;;;;;;6.40;100.00;102847.19;7375372;19;20037;-75
2022/05/09 04:25:38;;;;;;;23.58;7.43;;;;;;;6.40;99.82;102841.97;7375353;19;20447;-75
2022/05/09 04:28:19;;;;;;;21.95;7.95;;;;;;;6.38;100.00;102847.09;7371765;19;20011;-69
2022/05/09 04:30:51;;;;;;;25.05;8.45;;;;;;;6.38;100.00;102843.59;7372513;19;20011;-69
2022/05/09 04:33:24;;;;;;;22.85;7.40;;;;;;;6.41;100.00;102841.19;7373199;19;20009;-69
2022/05/09 04:35:58;;;;;;;22.77;7.70;;;;;;;6.43;100.00;102831.75;7369701;19;20013;-69
2022/05/09 04:38:28;;;;;;;24.77;7.88;;;;;;;6.45;100.00;102840.56;7373177;19;20480;-69
2022/05/09 04:41:02;;;;;;;19.33;7.28;;;;;;;6.47;100.00;102833.75;7373156;19;20400;-70
2022/05/09 04:43:33;;;;;;;24.23;8.70;;;;;;;6.50;100.00;102832.22;7373269;19;20010;-69
2022/05/09 04:46:08;;;;;;;21.27;7.72;;;;;;;6.56;100.00;102827.38;7374227;19;20018;-69
2022/05/09 04:48:40;;;;;;;24.17;7.43;;;;;;;6.59;100.00;102829.28;7375626;19;20492;-70
2022/05/09 04:51:15;;;;;;;23.58;8.40;;;;;;;6.67;100.00;102832.34;7371609;19;20034;-69
2022/05/09 04:53:49;;;;;;;23.25;7.95;;;;;;;6.74;99.79;102824.09;7366654;19;20479;-68
2022/05/09 04:56:22;;;;;;;22.42;7.72;;;;;;;6.80;99.45;102822.75;7373592;19;20010;-69
2022/05/09 04:58:53;;;;;;;18.02;7.80;;;;;;;6.93;98.95;102820.88;7372972;19;20028;-69
2022/05/09 05:01:23;;;;;;;21.70;7.38;;;;;;;6.97;98.60;102830.69;7374104;19;20014;-68
2022/05/09 05:03:56;;;;;;;22.55;8.40;;;;;;;7.04;98.46;102835.47;7371298;19;20162;-69
2022/05/09 05:06:30;;;;;;;24.45;7.43;;;;;;;7.13;97.81;102836.91;7372726;19;20063;-69
2022/05/09 05:09:00;;;;;;;24.65;7.57;;;;;;;7.25;97.65;102825.38;7373853;19;20466;-69
2022/05/09 05:11:33;;;;;;;21.75;7.00;;;;;;;7.39;97.17;102825.34;7373756;19;20340;-69
2022/05/09 05:14:02;;;;;;;18.00;6.90;;;;;;;7.61;96.38;102829.19;7369958;19;20144;-75
2022/05/09 05:19:16;;;;;;;19.40;7.03;;;;;;;8.09;94.37;102829.31;7370945;19;20011;-69
2022/05/09 05:21:47;;;;;;;13.90;6.28;;;;;;;8.36;93.56;102818.56;7372186;19;20014;-69
2022/05/09 05:24:21;;;;;;;20.88;7.40;;;;;;;8.54;91.71;102809.06;7369697;19;20017;-69
2022/05/09 05:26:56;;;;;;;23.65;6.70;;;;;;;8.71;90.36;102818.72;7370222;19;20005;-69
2022/05/09 05:29:26;;;;;;;20.25;7.03;;;;;;;8.81;90.17;102810.53;7373094;19;20014;-69
2022/05/09 05:31:58;;;;;;;19.02;6.47;;;;;;;9.04;88.84;102805.56;7372063;19;20019;-69
2022/05/09 05:34:38;;;;;;;17.83;6.05;;;;;;;9.32;87.73;102814.00;7369256;19;20523;-68
2022/05/09 05:37:12;;;;;;;13.35;6.40;;;;;;;9.47;85.93;102806.84;7372829;19;20010;-69
2022/05/09 05:39:42;;;;;;;14.73;6.00;;;;;;;9.57;83.82;102802.97;7376349;19;20010;-75
2022/05/09 05:42:17;;;;;;;19.80;7.15;;;;;;;9.86;83.18;102811.31;7378648;19;20010;-74
2022/05/09 05:44:49;;;;;;;17.15;5.70;;;;;;;9.99;82.54;102814.59;7379264;19;20074;-75
2022/05/09 05:47:21;;;;;;;19.38;6.05;;;;;;;10.16;81.45;102808.41;7379201;19;20011;-75
2022/05/09 05:49:51;;;;;;;15.27;5.50;;;;;;;10.54;80.69;102811.88;7378561;19;20014;-75
2022/05/09 05:52:21;;;;;;;18.05;6.57;;;;;;;10.59;79.62;102805.13;7380188;19;20480;-76
2022/05/09 05:54:51;;;;;;;16.95;5.60;;;;;;;10.85;78.99;102814.13;7372902;19;20631;-75
2022/05/09 05:57:27;;;;;;;13.77;5.13;;;;;;;10.99;77.37;102812.09;7380231;19;20011;-77
2022/05/09 05:59:58;;;;;;;10.65;4.63;;;;;;;11.21;76.86;102814.81;7380456;19;20018;-75
2022/05/09 06:02:30;;;;;;;15.73;5.65;;;;;;;11.47;74.92;102814.13;7380076;19;20082;-75
2022/05/09 06:05:00;;;;;;;13.60;5.18;;;;;;;11.68;74.61;102815.84;7380974;19;20018;-77
2022/05/09 06:07:30;;;;;;;14.95;6.10;;;;;;;11.88;73.57;102820.19;7377225;19;20075;-75
2022/05/09 06:09:59;;;;;;;16.92;5.68;;;;;;;11.85;69.69;102812.19;7380046;19;20018;-68
2022/05/09 06:12:33;;;;;;;12.60;5.53;;;;;;;12.02;69.25;102805.84;7378644;19;20019;-69
2022/05/09 06:17:51;;;;;;;16.45;5.40;;;;;;;12.29;68.80;102813.00;7379966;19;20780;-69
2022/05/09 06:20:22;;;;;;;12.40;5.23;;;;;;;12.53;66.85;102821.78;7379441;19;20002;-69
2022/05/09 06:22:54;;;;;;;12.32;5.35;;;;;;;12.66;66.07;102821.38;7374148;19;20042;-69
2022/05/09 06:25:28;;;;;;;17.20;5.80;;;;;;;12.71;66.39;102825.06;7374105;19;20078;-69
2022/05/09 06:28:01;;;;;;;16.90;5.25;;;;;;;12.85;65.47;102829.94;7376918;19;20047;-69
2022/05/09 06:30:36;;;;;;;12.85;5.05;;;;;;;13.37;65.53;102820.38;7371397;19;20010;-69
2022/05/09 06:33:07;;;;;;;15.57;5.75;;;;;;;13.40;63.60;102807.31;7372863;19;20359;-69
2022/05/09 06:35:49;;;;;;;12.27;5.35;;;;;;;13.50;62.97;102807.59;7372012;19;20042;-69
2022/05/09 06:38:23;;;;;;;18.75;5.90;;;;;;;13.87;63.51;102817.56;7373007;19;20017;-69
2022/05/09 06:41:00;;;;;;;11.35;4.88;;;;;;;13.84;62.82;102813.09;7375190;19;19998;-70
2022/05/09 06:43:37;;;;;;;11.65;5.70;;;;;;;14.01;61.54;102817.13;7372572;19;20279;-76
2022/05/09 06:46:07;;;;;;;12.45;5.72;;;;;;;14.17;60.66;102807.94;7380686;19;20022;-75
2022/05/09 06:48:37;;;;;;;14.25;5.40;;;;;;;14.32;60.73;102815.41;7380029;19;20138;-76
2022/05/09 06:51:07;;;;;;;14.48;5.72;;;;;;;14.61;59.90;102818.88;7379551;19;20031;-75
2022/05/09 06:53:37;;;;;;;15.98;5.88;;;;;;;14.61;58.33;102818.88;7373489;19;20029;-76
2022/05/09 06:56:08;;;;;;;12.55;5.25;;;;;;;14.88;59.13;102814.38;7371118;19;20082;-76
2022/05/09 06:58:42;;;;;;;11.45;5.47;;;;;;;15.03;57.31;102803.31;7376998;19;20365;-76
2022/05/09 07:01:16;;;;;;;13.02;5.45;;;;;;;15.26;57.44;102807.44;7380502;19;20011;-77
2022/05/09 07:03:47;;;;;;;13.55;5.40;;;;;;;15.54;56.63;102811.66;7369017;19;20010;-76
2022/05/09 07:06:18;;;;;;;14.10;5.90;;;;;;;15.82;56.64;102802.63;7376413;19;20086;-76
2022/05/09 07:08:48;;;;;;;20.98;6.72;;;;;;;15.70;55.43;102807.63;7376189;19;20385;-76
2022/05/09 07:11:17;;;;;;;11.38;5.47;;;;;;;15.99;55.51;102801.25;7376995;19;20019;-75
2022/05/09 07:13:55;;;;;;;14.27;5.80;;;;;;;16.46;55.63;102806.66;7375954;19;20038;-76
2022/05/09 07:16:25;;;;;;;14.23;5.70;;;;;;;16.50;54.40;102812.91;7374873;19;20019;-76
2022/05/09 07:19:00;;;;;;;12.05;5.80;;;;;;;16.68;54.30;102807.97;7376602;19;20014;-76
2022/05/09 07:21:30;;;;;;;15.90;5.63;;;;;;;16.64;53.72;102803.47;7369929;19;20087;-76
2022/05/09 07:24:00;;;;;;;10.70;5.82;;;;;;;16.82;53.02;102797.66;7378544;19;20006;-76
2022/05/09 07:26:30;;;;;;;16.45;5.80;;;;;;;16.75;52.43;102803.69;7372602;19;20010;-75
2022/05/09 07:29:03;;;;;;;13.30;6.15;;;;;;;17.20;52.56;102799.22;7375765;19;20024;-75
2022/05/09 07:31:33;;;;;;;14.48;5.72;;;;;;;17.05;50.81;102804.25;7370770;19;20010;-76
2022/05/09 07:34:04;;;;;;;15.27;6.05;;;;;;;17.53;51.21;102796.25;7375225;19;20010;-76
2022/05/09 07:36:34;;;;;;;12.13;5.82;;;;;;;17.57;49.73;102794.53;7373669;19;20011;-75
2022/05/09 07:39:05;;;;;;;12.95;6.25;;;;;;;17.61;51.00;102791.06;7374978;19;20043;-76
2022/05/09 07:41:35;;;;;;;12.65;5.95;;;;;;;17.76;49.44;102787.72;7372561;19;20243;-75
2022/05/09 07:44:07;;;;;;;16.58;6.22;;;;;;;18.16;49.13;102794.50;7373837;19;20014;-76
2022/05/09 07:46:37;;;;;;;15.27;6.45;;;;;;;18.25;48.37;102791.94;7373912;19;20540;-76
2022/05/09 07:49:15;;;;;;;13.13;5.63;;;;;;;18.47;48.11;102791.34;7376527;19;20015;-77
2022/05/09 07:51:46;;;;;;;16.45;6.63;;;;;;;18.73;47.25;102790.75;7377269;19;20024;-78
2022/05/09 07:54:16;;;;;;;15.65;6.00;;;;;;;18.83;46.68;102787.31;7368554;19;20096;-78
2022/05/09 07:56:46;;;;;;;19.35;6.90;;;;;;;18.70;46.08;102788.97;7375754;19;20014;-78
2022/05/09 07:59:25;;;;;;;11.93;5.80;;;;;;;18.95;46.25;102782.09;7370028;19;20014;-70
2022/05/09 08:01:55;;;;;;;15.90;6.43;;;;;;;19.50;45.09;102778.13;7372376;19;20026;-70
2022/05/09 08:04:28;;;;;;;12.23;5.38;;;;;;;19.94;44.56;102777.53;7372761;19;20788;-70
2022/05/09 08:07:13;;;;;;;14.68;6.43;;;;;;;19.77;43.46;102780.09;7374981;19;20014;-70
2022/05/09 08:09:46;;;;;;;15.00;5.72;;;;;;;19.56;43.50;102783.53;7372785;19;20450;-70
2022/05/09 08:12:20;;;;;;;15.30;5.97;;;;;;;19.20;44.80;102780.56;7375464;19;20379;-70
2022/05/09 08:14:56;;;;;;;13.95;6.25;;;;;;;19.99;43.89;102778.44;7374446;19;20007;-69
2022/05/09 08:17:27;;;;;;;15.95;6.43;;;;;;;20.17;44.47;102780.28;7367492;19;20011;-70
2022/05/09 08:20:00;;;;;;;;;;;;;;;20.42;43.53;102776.88;7376002;19;20048;-69
2022/05/09 08:22:34;;;;;;;16.88;5.75;;;;;;;20.50;41.93;102777.78;7371039;19;19918;-70
2022/05/09 08:25:07;;;;;;;14.98;6.78;;;;;;;20.61;42.66;102774.25;7374913;19;20010;-71
2022/05/09 08:27:41;;;;;;;16.30;5.72;;;;;;;20.80;42.73;102776.09;7369455;19;20010;-70
2022/05/09 08:30:21;;;;;;;14.23;5.95;;;;;;;20.69;41.67;102777.84;7373724;19;20522;-70
2022/05/09 08:33:02;;;;;;;18.17;6.10;;;;;;;20.95;41.71;102770.72;7370614;19;20013;-70
2022/05/09 08:35:33;;;;;;;15.63;6.70;;;;;;;21.00;41.02;102771.63;7374540;19;20011;-70
2022/05/09 08:38:11;;;;;;;15.45;6.45;;;;;;;21.05;40.02;102772.53;7373745;19;20056;-69
2022/05/09 08:40:53;;;;;;;18.30;6.22;;;;;;;21.24;40.42;102764.56;7370913;19;20011;-71
2022/05/09 08:43:37;;;;;;;15.30;6.13;;;;;;;21.48;40.35;102764.53;7371980;19;20011;-70
2022/05/09 08:46:16;;;;;;;;;;;;;;;21.42;39.97;102759.19;7377572;19;20428;-71
2022/05/09 08:49:10;;;;;;;14.25;5.72;;;;;;;21.36;40.51;102761.88;7376176;19;20506;-70
2022/05/09 08:51:56;;;;;;;16.70;6.47;;;;;;;21.42;39.56;102765.44;7377361;19;20105;-73
2022/05/09 08:54:27;;;;;;;13.03;5.67;;;;;;;22.11;40.64;102763.47;7369158;19;20021;-74
2022/05/09 08:57:03;;;;;;;10.88;4.95;;;;;;;22.34;39.60;102755.34;7375669;19;20753;-72
2022/05/09 08:59:39;;;;;;;13.88;5.65;;;;;;;21.65;38.05;102756.50;7375209;19;20014;-73
2022/05/09 09:02:18;;;;;;;13.75;5.63;;;;;;;21.62;38.22;102757.38;7376620;19;20021;-72
2022/05/09 09:04:59;;;;;;;13.55;5.55;;;;;;;21.64;38.94;102760.94;7370969;19;20383;-72
2022/05/09 09:07:48;;;;;;;16.95;6.43;;;;;;;21.80;38.37;102753.78;7373211;19;20094;-72
2022/05/09 09:10:26;;;;;;;12.63;5.30;;;;;;;21.78;37.29;102752.91;7376197;19;20053;-73
2022/05/09 09:13:08;;;;;;;11.57;5.40;;;;;;;22.14;37.82;102744.75;7376213;19;20039;-72
2022/05/09 09:15:49;;;;;;;12.40;4.80;;;;;;;22.45;35.82;102745.47;7378810;19;20234;-73
2022/05/09 09:18:46;;;;;;;12.82;5.38;;;;;;;22.30;35.92;102742.91;7373027;19;20021;-73
2022/05/09 09:21:24;;;;;;;15.02;6.07;;;;;;;22.16;36.61;102745.63;7380899;19;20090;-72
2022/05/09 09:24:15;;;;;;;13.70;5.07;;;;;;;22.46;34.62;102733.88;7381428;19;20010;-72
2022/05/09 09:27:00;;;;;;;13.05;5.45;;;;;;;22.49;35.20;102731.19;7384217;19;20007;-72
2022/05/09 09:29:36;;;;;;;11.77;4.53;;;;;;;22.43;35.16;102741.03;7381489;19;20133;-74
2022/05/09 09:32:11;;;;;;;9.15;4.05;;;;;;;22.46;35.06;102731.22;7382421;19;20026;-72
2022/05/09 09:34:52;;;;;;;10.38;4.10;;;;;;;22.30;35.16;102728.63;7381077;19;20018;-72
2022/05/09 09:37:26;;;;;;;10.18;4.40;;;;;;;22.19;35.38;102729.59;7382617;19;20074;-72
2022/05/09 09:39:56;;;;;;;14.07;5.25;;;;;;;22.84;34.78;102722.06;7381116;19;20014;-74
2022/05/09 09:42:26;;;;;;;10.60;4.45;;;;;;;22.78;34.32;102722.09;7380110;19;20121;-73
2022/05/09 09:44:58;;;;;;;14.80;4.65;;;;;;;22.73;34.14;102713.22;7380019;19;20511;-73
2022/05/09 09:47:31;;;;;;;11.68;4.90;;;;;;;22.97;35.27;102713.00;7381303;19;20010;-73
2022/05/09 09:50:26;;;;;;;11.90;4.40;;;;;;;23.17;34.06;102705.69;7379165;19;20616;-72
2022/05/09 09:52:59;;;;;;;11.23;4.45;;;;;;;23.09;33.48;102706.66;7374068;19;20377;-72
2022/05/09 09:55:30;;;;;;;15.52;4.95;;;;;;;22.93;33.46;102707.69;7380715;19;20073;-72
2022/05/09 09:58:20;;;;;;;11.50;4.15;;;;;;;22.86;33.45;102704.22;7378805;19;20011;-73
2022/05/09 10:01:04;;;;;;;9.60;3.85;;;;;;;23.46;33.75;102707.19;7379881;19;20014;-72
2022/05/09 10:03:38;;;;;;;14.77;4.97;;;;;;;23.41;34.45;102706.34;7382009;19;20010;-72
2022/05/09 10:06:21;;;;;;;10.10;3.97;;;;;;;23.82;33.79;102699.69;7378442;19;20321;-72
2022/05/09 10:09:00;;;;;;;10.85;4.50;;;;;;;23.69;32.81;102697.16;7381528;19;20014;-73
2022/05/09 10:11:32;;;;;;;10.60;4.55;;;;;;;23.88;32.24;102692.44;7377313;19;20050;-73
2022/05/09 10:17:40;;;;;;;8.00;4.38;;;;;;;23.68;32.69;102703.41;7372177;19;20011;-78
2022/05/09 10:20:36;;;;;;;13.13;4.22;;;;;;;23.50;32.93;102690.19;7374490;19;20010;-76
2022/05/09 10:26:04;;;;;;;10.27;4.35;;;;;;;23.54;33.34;102681.25;7372739;19;20042;-77
2022/05/09 10:28:39;;;;;;;14.18;4.43;;;;;;;24.00;33.51;102675.28;7372401;19;20671;-81
2022/05/09 10:31:20;;;;;;;11.23;4.57;;;;;;;23.44;33.13;102682.22;7378812;19;20828;-81
2022/05/09 10:33:58;;;;;;;8.95;4.38;;;;;;;23.86;33.38;102675.50;7374841;19;20543;-81
2022/05/09 10:36:32;;;;;;;11.40;4.32;;;;;;;23.83;33.58;102680.00;7375523;19;20006;-80
2022/05/09 10:39:12;;;;;;;12.65;5.28;;;;;;;23.60;33.16;102675.81;7371535;19;20013;-80
2022/05/09 10:45:44;;;;;;;10.35;3.80;;;;;;;24.47;32.67;102660.34;7379417;19;20010;-74
2022/05/09 10:51:36;;;;;;;11.80;4.15;;;;;;;23.65;32.32;102657.91;7373626;19;20016;-75
2022/05/09 10:54:40;;;;;;;10.63;4.75;;;;;;;24.47;32.17;102654.97;7368455;19;20014;-74
2022/05/09 11:01:10;;;;;;;;;;;;;;;;;;;;;
2022/05/09 11:03:56;;;;;;;12.20;4.78;;;;;;;23.90;31.39;102660.28;7369734;19;20128;-78
2022/05/09 11:06:44;;;;;;;13.80;4.97;;;;;;;23.83;31.82;102659.47;7366928;19;20441;-79
2022/05/09 11:09:26;;;;;;;14.38;4.90;;;;;;;24.67;32.66;102655.53;7369343;19;20137;-78
2022/05/09 11:12:12;;;;;;;11.50;4.82;;;;;;;24.91;32.53;102649.75;7374739;19;20015;-74
2022/05/09 11:14:53;;;;;;;12.45;4.78;;;;;;;25.22;31.44;102649.19;7370608;19;20118;-81
2022/05/09 11:25:32;;;;;;;16.85;5.22;;;;;;;24.94;31.91;102644.34;7262234;19;20018;-74
2022/05/09 11:32:30;;;;;;;12.05;4.85;;;;;;;24.55;31.68;102634.28;7370285;19;20010;-80
2022/05/09 11:35:26;;;;;;;13.43;5.30;;;;;;;24.87;31.25;102623.88;7368145;19;20015;-79
2022/05/09 11:38:10;;;;;;;12.32;5.07;;;;;;;25.02;31.58;102623.59;7365323;19;20094;-80
2022/05/09 11:40:48;;;;;;;15.38;6.10;;;;;;;24.59;30.81;102623.47;7374314;19;20036;-79
2022/05/09 11:43:32;;;;;;;14.13;5.97;;;;;;;25.12;31.72;102618.94;7371608;19;20039;-79
2022/05/09 11:46:23;;;;;;;11.40;5.30;;;;;;;25.16;31.22;102611.72;7374268;19;20487;-81
2022/05/09 11:49:07;;;;;;;15.20;5.65;;;;;;;24.72;31.50;102611.63;7372411;19;20043;-79
2022/05/09 11:51:48;;;;;;;13.98;5.28;;;;;;;25.22;31.27;102604.44;7374151;19;20007;-79
2022/05/09 11:57:58;;;;;;;17.65;5.90;;;;;;;25.28;32.34;102595.38;7368014;19;20013;-78
2022/05/09 12:23:43;;;;;;;;;;;;;;;;;;;;;
2022/05/09 12:26:33;;;;;;;16.83;6.07;;;;;;;25.45;29.59;102555.63;7363119;19;20365;-79
2022/05/09 12:29:30;;;;;;;16.08;6.50;;;;;;;25.21;30.77;102551.63;7370096;19;20174;-79
2022/05/09 12:32:02;;;;;;;10.55;4.15;;;;;;;25.82;31.05;102550.34;7368729;19;20056;-80
2022/05/09 12:34:40;;;;;;;12.10;4.80;;;;;;;25.67;31.21;102538.13;7365762;19;20011;-78
2022/05/09 12:40:50;;;;;;;10.18;4.43;;;;;;;25.67;29.90;102534.56;7367366;19;20021;-74
2022/05/09 12:43:20;;;;;;;13.35;5.10;;;;;;;25.57;30.16;102541.03;7365656;19;20015;-78
2022/05/09 12:49:40;;;;;;;11.25;4.90;;;;;;;25.74;29.21;102534.38;7363410;19;20532;-77
2022/05/09 12:52:43;;;;;;;15.25;4.82;;;;;;;25.74;30.45;102545.13;7360806;19;20019;-73
2022/05/09 12:59:06;;;;;;;13.95;5.35;;;;;;;26.45;30.37;102535.34;7364166;19;20074;-77
2022/05/09 13:01:37;;;;;;;13.55;5.57;;;;;;;25.43;30.35;102526.09;7362607;19;20019;-76
2022/05/09 13:04:39;;;;;;;13.38;5.25;;;;;;;25.40;31.08;102514.53;7364872;19;20018;-73
2022/05/09 13:07:12;;;;;;;12.52;5.38;;;;;;;25.55;30.26;102519.56;7361614;19;20054;-75
2022/05/09 13:12:50;;;;;;;17.48;5.55;;;;;;;25.90;29.60;102510.72;7366182;19;20015;-74
2022/05/09 13:15:22;;;;;;;10.27;5.30;;;;;;;26.16;29.44;102504.66;7370348;19;20418;-74
2022/05/09 13:17:59;;;;;;;12.88;5.22;;;;;;;25.93;30.11;102499.91;7370924;19;20011;-75
2022/05/09 13:20:32;;;;;;;12.98;5.03;;;;;;;26.28;30.58;102507.03;7374171;19;20003;-75
2022/05/09 13:23:09;;;;;;;13.75;5.43;;;;;;;26.40;29.42;102500.50;7372675;19;20049;-75
2022/05/09 13:26:28;;;;;;;13.43;6.20;;;;;;;26.24;29.43;102497.28;7372912;19;20470;-72